createdAt,value
2018-04-10T00:00:46.510Z,16.27
2018-04-10T00:01:46.569Z,16.33
2018-04-10T00:02:46.352Z,16.34
2018-04-10T00:03:46.499Z,16.30
2018-04-10T00:04:46.185Z,16.33
2018-04-10T00:05:46.125Z,16.33
2018-04-10T00:06:46.029Z,16.18
2018-04-10T00:07:45.993Z,16.17
2018-04-10T00:08:45.892Z,16.22
2018-04-10T00:09:45.914Z,16.22
2018-04-10T00:10:45.730Z,16.16
2018-04-10T00:13:27.874Z,16.10
2018-04-10T00:14:27.816Z,16.08
2018-04-10T00:15:27.660Z,16.08
2018-04-10T00:16:27.617Z,16.16
2018-04-10T00:17:27.473Z,16.07
2018-04-10T00:42:49.712Z,16.04
2018-04-10T00:43:49.451Z,16.08
2018-04-10T00:44:49.427Z,16.11
2018-04-10T00:45:49.297Z,16.08
2018-04-10T00:46:49.355Z,16.11
2018-04-10T00:47:49.143Z,16.11
2018-04-10T00:48:49.130Z,16.11
2018-04-10T00:49:49.069Z,16.11
2018-04-10T00:50:48.947Z,16.07
2018-04-10T00:51:48.842Z,16.06
2018-04-10T00:52:48.854Z,16.08
2018-04-10T00:53:48.666Z,16.08
2018-04-10T00:54:48.658Z,15.96
2018-04-10T00:55:48.513Z,16.03
2018-04-10T00:56:48.495Z,16.06
2018-04-10T00:57:48.356Z,15.99
2018-04-10T00:58:48.469Z,16.08
2018-04-10T00:59:48.204Z,16.08
2018-04-10T01:00:48.184Z,16.07
2018-04-10T01:01:48.041Z,16.04
2018-04-10T01:02:48.053Z,16.13
2018-04-10T01:03:47.892Z,16.11
2018-04-10T01:04:47.814Z,16.16
2018-04-10T01:05:47.730Z,16.14
2018-04-10T01:06:47.709Z,16.11
2018-04-10T01:07:47.589Z,16.11
2018-04-10T01:08:47.522Z,16.10
2018-04-10T01:09:47.414Z,16.16
2018-04-10T01:10:47.433Z,16.10
2018-04-10T01:11:47.263Z,16.14
2018-04-10T01:12:47.305Z,16.08
2018-04-10T01:13:47.100Z,16.07
2018-04-10T01:14:47.153Z,16.13
2018-04-10T01:15:46.952Z,16.07
2018-04-10T01:16:46.964Z,15.99
2018-04-10T01:17:46.808Z,16.06
2018-04-10T01:18:46.768Z,16.06
2018-04-10T01:19:46.633Z,15.99
2018-04-10T01:20:46.682Z,16.07
2018-04-10T01:21:46.474Z,16.10
2018-04-10T01:22:46.519Z,15.93
2018-04-10T01:23:46.324Z,15.99
2018-04-10T01:24:46.298Z,15.91
2018-04-10T01:25:46.162Z,15.93
2018-04-10T01:26:46.204Z,15.98
2018-04-10T01:27:46.023Z,15.95
2018-04-10T01:28:48.889Z,15.96
2018-04-10T01:29:46.958Z,15.96
2018-04-10T01:30:45.776Z,15.99
2018-04-10T01:31:45.696Z,15.99
2018-04-10T01:32:45.772Z,15.91
2018-04-10T01:33:45.542Z,15.80
2018-04-10T01:34:45.552Z,15.78
2018-04-10T01:35:45.383Z,15.78
2018-04-10T01:36:45.354Z,15.78
2018-04-10T01:37:45.219Z,15.77
2018-04-10T01:38:45.198Z,15.81
2018-04-10T01:39:45.066Z,15.80
2018-04-10T01:40:45.081Z,15.80
2018-04-10T01:41:44.904Z,15.84
2018-04-10T01:44:26.834Z,15.86
2018-04-10T01:45:26.752Z,15.76
2018-04-10T01:46:26.653Z,15.73
2018-04-10T01:47:26.686Z,15.74
2018-04-10T01:48:26.580Z,15.74
2018-04-10T01:49:26.499Z,15.71
2018-04-10T01:50:26.343Z,15.71
2018-04-10T01:53:33.848Z,15.70
2018-04-10T01:54:54.721Z,15.67
2018-04-10T01:55:54.636Z,15.70
2018-04-10T01:56:33.709Z,15.71
2018-04-10T01:57:33.506Z,15.71
2018-04-10T01:58:33.520Z,15.71
2018-04-10T01:59:33.374Z,15.56
2018-04-10T02:12:48.708Z,15.16
2018-04-10T02:13:48.479Z,15.20
2018-04-10T02:14:48.509Z,15.34
2018-04-10T02:15:48.333Z,15.31
2018-04-10T02:16:48.277Z,15.28
2018-04-10T02:17:48.176Z,15.20
2018-04-10T02:18:48.192Z,15.35
2018-04-10T02:19:48.006Z,15.22
2018-04-10T02:20:48.040Z,15.31
2018-04-10T02:21:47.849Z,15.31
2018-04-10T02:22:47.829Z,15.25
2018-04-10T02:23:47.699Z,15.33
2018-04-10T02:26:29.849Z,15.13
2018-04-10T02:27:29.824Z,15.18
2018-04-10T02:28:29.670Z,15.18
2018-04-10T02:29:29.625Z,15.15
2018-04-10T02:30:29.532Z,15.13
2018-04-10T02:31:29.450Z,15.01
2018-04-10T02:32:29.375Z,15.09
2018-04-10T02:33:29.289Z,15.00
2018-04-10T02:34:29.193Z,14.91
2018-04-10T02:35:29.196Z,15.01
2018-04-10T02:36:29.077Z,14.95
2018-04-10T02:37:29.272Z,14.97
2018-04-10T02:38:28.896Z,14.91
2018-04-10T02:41:10.848Z,14.91
2018-04-10T02:42:31.730Z,14.93
2018-04-10T02:43:31.767Z,14.80
2018-04-10T02:44:10.593Z,14.86
2018-04-10T02:45:10.512Z,14.78
2018-04-10T02:46:10.562Z,14.79
2018-04-10T02:47:10.353Z,14.78
2018-04-10T02:48:10.404Z,14.75
2018-04-10T02:49:10.199Z,14.69
2018-04-10T02:50:10.215Z,14.69
2018-04-10T02:51:10.077Z,14.66
2018-04-10T02:52:10.018Z,14.69
2018-04-10T02:53:09.884Z,14.82
2018-04-10T02:54:09.932Z,14.69
2018-04-10T02:55:09.730Z,14.64
2018-04-10T02:56:09.742Z,14.69
2018-04-10T02:57:09.583Z,14.69
2018-04-10T02:58:09.548Z,14.63
2018-04-10T02:59:09.417Z,14.64
2018-04-10T03:00:09.459Z,14.71
2018-04-10T03:01:09.264Z,14.69
2018-04-10T03:02:09.307Z,14.71
2018-04-10T03:03:09.143Z,14.69
2018-04-10T03:04:09.082Z,14.79
2018-04-10T03:05:08.946Z,14.67
2018-04-10T03:06:08.992Z,14.66
2018-04-10T03:07:08.829Z,14.67
2018-04-10T03:08:08.788Z,14.71
2018-04-10T03:09:08.630Z,14.72
2018-04-10T03:10:08.599Z,14.69
2018-04-10T03:11:08.467Z,14.71
2018-04-10T03:12:08.548Z,14.64
2018-04-10T03:13:08.328Z,14.66
2018-04-10T03:14:08.313Z,14.59
2018-04-10T03:15:08.162Z,14.53
2018-04-10T03:16:08.120Z,14.54
2018-04-10T03:17:08.013Z,14.56
2018-04-10T03:18:07.965Z,14.48
2018-04-10T03:19:07.835Z,14.52
2018-04-10T03:20:07.842Z,14.52
2018-04-10T03:21:07.780Z,14.52
2018-04-10T03:22:07.653Z,14.42
2018-04-10T03:23:07.540Z,14.46
2018-04-10T03:24:07.567Z,14.49
2018-04-10T03:25:07.367Z,14.42
2018-04-10T03:26:07.371Z,14.44
2018-04-10T03:27:07.209Z,14.49
2018-04-10T03:28:07.229Z,14.44
2018-04-10T03:29:07.073Z,14.46
2018-04-10T03:30:07.098Z,14.45
2018-04-10T03:31:06.896Z,14.45
2018-04-10T03:32:07.035Z,14.36
2018-04-10T03:33:06.781Z,14.36
2018-04-10T03:34:06.708Z,14.39
2018-04-10T03:35:06.579Z,14.36
2018-04-10T03:36:06.624Z,14.39
2018-04-10T03:37:06.440Z,14.38
2018-04-10T03:38:06.459Z,14.41
2018-04-10T03:39:06.279Z,14.41
2018-04-10T03:40:06.244Z,14.36
2018-04-10T03:41:06.115Z,14.31
2018-04-10T03:42:06.155Z,14.36
2018-04-10T03:43:05.951Z,14.30
2018-04-10T03:44:05.986Z,14.23
2018-04-10T03:45:05.811Z,14.36
2018-04-10T03:46:05.762Z,14.31
2018-04-10T03:47:05.636Z,14.44
2018-04-10T03:48:05.686Z,14.23
2018-04-10T03:49:05.626Z,14.23
2018-04-10T03:51:47.343Z,14.26
2018-04-10T03:52:47.404Z,14.27
2018-04-10T03:53:47.198Z,14.23
2018-04-10T03:54:47.230Z,14.24
2018-04-10T03:55:47.032Z,14.26
2018-04-10T03:56:46.995Z,14.26
2018-04-10T03:57:46.874Z,14.24
2018-04-10T03:58:46.911Z,14.20
2018-04-10T03:59:46.739Z,14.23
2018-04-10T04:03:31.880Z,14.16
2018-04-10T04:04:31.835Z,14.09
2018-04-10T04:05:31.708Z,14.21
2018-04-10T04:06:31.701Z,14.12
2018-04-10T04:07:31.526Z,14.09
2018-04-10T04:08:31.553Z,14.13
2018-04-10T04:09:31.389Z,14.17
2018-04-10T04:10:31.419Z,14.17
2018-04-10T04:11:31.240Z,14.11
2018-04-10T04:12:31.244Z,14.06
2018-04-10T04:13:31.055Z,14.05
2018-04-10T04:14:31.011Z,14.08
2018-04-10T04:15:30.900Z,14.09
2018-04-10T04:16:30.948Z,14.06
2018-04-10T04:17:30.744Z,14.06
2018-04-10T04:18:30.757Z,14.08
2018-04-10T04:19:30.601Z,14.08
2018-04-10T04:20:30.566Z,14.04
2018-04-10T04:21:30.431Z,14.06
2018-04-10T04:22:30.475Z,14.05
2018-04-10T04:23:30.277Z,14.02
2018-04-10T04:24:30.320Z,14.05
2018-04-10T04:25:30.116Z,13.98
2018-04-10T04:26:30.193Z,13.99
2018-04-10T04:27:29.953Z,14.06
2018-04-10T04:28:30.016Z,14.06
2018-04-10T04:29:29.812Z,13.98
2018-04-10T04:30:29.853Z,14.01
2018-04-10T04:31:29.649Z,13.98
2018-04-10T04:32:29.620Z,14.01
2018-04-10T04:33:29.488Z,14.05
2018-04-10T04:34:29.537Z,14.01
2018-04-10T04:35:29.346Z,13.98
2018-04-10T04:36:29.340Z,14.01
2018-04-10T04:37:29.166Z,13.96
2018-04-10T04:38:29.154Z,13.91
2018-04-10T04:39:29.018Z,13.94
2018-04-10T04:40:28.996Z,14.11
2018-04-10T04:41:28.844Z,13.98
2018-04-10T04:44:10.913Z,13.96
2018-04-10T04:45:10.933Z,14.13
2018-04-10T04:46:10.734Z,14.06
2018-04-10T05:12:32.312Z,13.93
2018-04-10T05:13:32.348Z,14.02
2018-04-10T05:14:32.147Z,13.98
2018-04-10T05:15:32.163Z,13.99
2018-04-10T05:16:31.999Z,13.94
2018-04-10T05:17:32.042Z,14.01
2018-04-10T05:18:31.834Z,13.96
2018-04-10T05:19:31.884Z,13.96
2018-04-10T05:20:31.673Z,14.01
2018-04-10T05:21:31.718Z,14.01
2018-04-10T05:22:31.638Z,13.94
2018-04-10T05:23:31.567Z,13.91
2018-04-10T05:24:31.343Z,13.94
2018-04-10T05:25:31.407Z,13.99
2018-04-10T05:26:31.193Z,13.99
2018-04-10T05:27:31.240Z,14.05
2018-04-10T05:28:31.044Z,14.04
2018-04-10T05:29:31.021Z,14.08
2018-04-10T05:30:30.892Z,14.06
2018-04-10T05:31:30.827Z,14.06
2018-04-10T05:32:30.734Z,14.05
2018-04-10T05:33:30.777Z,14.08
2018-04-10T05:34:30.569Z,14.13
2018-04-10T05:35:30.556Z,14.16
2018-04-10T05:36:30.428Z,14.19
2018-04-10T05:37:30.387Z,14.06
2018-04-10T05:38:30.256Z,14.16
2018-04-10T05:39:30.268Z,14.17
2018-04-10T05:40:30.088Z,14.11
2018-04-10T05:41:30.077Z,14.11
2018-04-10T05:42:29.932Z,14.20
2018-04-10T05:43:30.028Z,14.17
2018-04-10T05:44:29.770Z,14.16
2018-04-10T05:45:29.801Z,14.27
2018-04-10T05:48:38.392Z,14.38
2018-04-10T05:49:59.274Z,14.23
2018-04-10T05:50:38.221Z,14.24
2018-04-10T05:51:38.235Z,14.29
2018-04-10T05:52:38.054Z,14.38
2018-04-10T05:53:38.076Z,14.39
2018-04-10T05:54:37.898Z,14.36
2018-04-10T05:55:37.955Z,14.31
2018-04-10T05:56:37.754Z,14.27
2018-04-10T05:57:37.763Z,14.26
2018-04-10T05:58:37.617Z,14.31
2018-04-10T05:59:37.580Z,14.34
2018-04-10T06:00:37.426Z,14.45
2018-04-10T06:01:37.482Z,14.38
2018-04-10T06:02:37.277Z,14.49
2018-04-10T06:03:37.318Z,14.46
2018-04-10T06:04:37.129Z,14.45
2018-04-10T06:05:37.097Z,14.45
2018-04-10T06:06:36.966Z,14.39
2018-04-10T06:07:37.009Z,14.49
2018-04-10T06:08:36.828Z,14.44
2018-04-10T06:09:36.843Z,14.56
2018-04-10T06:10:36.658Z,14.52
2018-04-10T06:11:36.622Z,14.63
2018-04-10T06:12:36.489Z,14.66
2018-04-10T06:13:36.538Z,14.79
2018-04-10T06:14:36.346Z,14.71
2018-04-10T06:15:36.340Z,14.82
2018-04-10T06:16:36.185Z,14.80
2018-04-10T06:17:36.151Z,14.94
2018-04-10T06:18:36.007Z,14.93
2018-04-10T06:19:36.110Z,14.97
2018-04-10T06:20:35.909Z,14.91
2018-04-10T06:21:35.863Z,15.00
2018-04-10T06:22:35.702Z,14.95
2018-04-10T06:23:35.690Z,14.95
2018-04-10T06:24:35.546Z,14.80
2018-04-10T06:25:35.515Z,14.90
2018-04-10T06:26:35.384Z,14.90
2018-04-10T06:27:35.426Z,14.86
2018-04-10T06:28:35.260Z,14.80
2018-04-10T06:29:35.239Z,14.90
2018-04-10T06:30:35.102Z,14.93
2018-04-10T06:31:35.120Z,14.94
2018-04-10T06:32:34.944Z,14.93
2018-04-10T06:33:34.923Z,14.97
2018-04-10T06:34:34.764Z,14.97
2018-04-10T06:35:34.763Z,15.00
2018-04-10T06:36:34.601Z,15.04
2018-04-10T06:37:34.652Z,15.09
2018-04-10T06:38:34.446Z,15.07
2018-04-10T06:39:34.456Z,15.16
2018-04-10T06:40:34.302Z,15.13
2018-04-10T06:41:34.282Z,15.04
2018-04-10T06:42:34.138Z,15.05
2018-04-10T06:43:34.191Z,15.22
2018-04-10T06:44:33.972Z,15.23
2018-04-10T06:45:34.023Z,15.28
2018-04-10T06:46:33.858Z,15.35
2018-04-10T06:47:33.837Z,15.37
2018-04-10T06:48:33.706Z,15.28
2018-04-10T06:49:33.698Z,15.27
2018-04-10T06:50:33.516Z,15.27
2018-04-10T06:51:33.552Z,15.25
2018-04-10T06:52:33.344Z,15.41
2018-04-10T06:53:33.288Z,15.27
2018-04-10T06:54:33.186Z,15.33
2018-04-10T06:55:33.252Z,15.33
2018-04-10T06:56:33.052Z,15.35
2018-04-10T06:57:32.976Z,15.35
2018-04-10T06:58:32.882Z,15.38
2018-04-10T06:59:32.848Z,15.46
2018-04-10T07:00:32.714Z,15.46
2018-04-10T07:01:32.756Z,15.60
2018-04-10T07:02:32.697Z,15.58
2018-04-10T07:03:32.564Z,15.58
2018-04-10T07:04:32.428Z,15.84
2018-04-10T07:05:32.382Z,15.91
2018-04-10T07:06:32.258Z,16.06
2018-04-10T07:07:32.331Z,15.96
2018-04-10T07:08:32.084Z,16.13
2018-04-10T07:09:32.118Z,16.08
2018-04-10T07:10:32.425Z,16.34
2018-04-10T07:11:31.943Z,16.63
2018-04-10T07:12:31.798Z,16.69
2018-04-10T07:13:31.834Z,16.78
2018-04-10T07:14:31.628Z,16.77
2018-04-10T07:15:31.614Z,16.70
2018-04-10T07:16:31.590Z,16.88
2018-04-10T07:17:31.472Z,17.00
2018-04-10T07:18:31.303Z,16.92
2018-04-10T07:19:31.346Z,16.96
2018-04-10T07:20:31.162Z,17.02
2018-04-10T07:21:31.138Z,17.02
2018-04-10T07:22:31.040Z,16.96
2018-04-10T07:23:31.068Z,16.85
2018-04-10T07:24:30.836Z,16.91
2018-04-10T07:25:30.861Z,17.09
2018-04-10T07:26:30.687Z,17.15
2018-04-10T07:27:30.705Z,17.03
2018-04-10T07:28:30.538Z,17.15
2018-04-10T07:29:30.466Z,17.09
2018-04-10T07:30:30.375Z,17.14
2018-04-10T07:31:30.296Z,17.21
2018-04-10T07:32:30.223Z,17.45
2018-04-10T07:33:30.178Z,17.43
2018-04-10T07:34:30.066Z,17.10
2018-04-10T07:35:29.988Z,17.28
2018-04-10T07:36:29.911Z,17.66
2018-04-10T07:37:29.885Z,17.40
2018-04-10T07:38:29.769Z,17.65
2018-04-10T07:39:29.687Z,17.73
2018-04-10T07:40:29.600Z,18.04
2018-04-10T07:41:29.534Z,17.91
2018-04-10T07:42:29.439Z,17.84
2018-04-10T07:43:29.410Z,18.07
2018-04-10T07:44:29.422Z,18.53
2018-04-10T07:45:29.221Z,18.36
2018-04-10T07:46:29.142Z,18.49
2018-04-10T07:47:29.062Z,18.86
2018-04-10T07:48:28.995Z,19.10
2018-04-10T07:49:28.948Z,19.58
2018-04-10T07:50:28.826Z,19.15
2018-04-10T07:51:28.813Z,18.84
2018-04-10T07:52:28.677Z,18.86
2018-04-10T07:53:28.633Z,19.46
2018-04-10T07:54:28.522Z,19.06
2018-04-10T07:55:28.456Z,19.31
2018-04-10T07:56:28.372Z,19.70
2018-04-10T07:57:28.305Z,19.67
2018-04-10T07:58:28.977Z,20.12
2018-04-10T07:59:28.147Z,20.13
2018-04-10T08:00:28.064Z,19.89
2018-04-10T08:01:27.993Z,20.15
2018-04-10T08:02:27.898Z,20.42
2018-04-10T08:03:27.876Z,20.00
2018-04-10T08:04:27.769Z,19.45
2018-04-10T08:05:27.689Z,18.65
2018-04-10T08:06:27.598Z,18.64
2018-04-10T08:07:27.546Z,18.51
2018-04-10T08:08:27.444Z,18.42
2018-04-10T08:09:27.405Z,18.23
2018-04-10T08:10:27.293Z,18.31
2018-04-10T08:11:27.232Z,18.17
2018-04-10T08:12:27.143Z,18.46
2018-04-10T08:13:27.092Z,18.23
2018-04-10T08:14:27.005Z,18.46
2018-04-10T08:15:26.935Z,18.71
2018-04-10T08:16:26.842Z,19.46
2018-04-10T08:17:26.781Z,19.31
2018-04-10T08:18:26.698Z,19.64
2018-04-10T08:19:26.758Z,19.60
2018-04-10T08:20:26.539Z,19.31
2018-04-10T08:21:26.495Z,19.28
2018-04-10T08:22:26.382Z,19.12
2018-04-10T08:23:26.440Z,18.79
2018-04-10T08:24:26.241Z,18.83
2018-04-10T08:25:26.233Z,19.13
2018-04-10T08:26:26.076Z,19.87
2018-04-10T08:27:26.053Z,20.57
2018-04-10T08:28:25.940Z,20.96
2018-04-10T08:29:25.865Z,20.16
2018-04-10T08:30:25.798Z,19.72
2018-04-10T08:31:25.802Z,20.37
2018-04-10T08:32:25.636Z,20.68
2018-04-10T08:33:25.673Z,20.60
2018-04-10T08:34:25.512Z,20.69
2018-04-10T08:35:25.486Z,20.57
2018-04-10T08:36:25.317Z,20.25
2018-04-10T08:37:25.296Z,19.30
2018-04-10T08:38:25.163Z,19.68
2018-04-10T08:39:25.105Z,20.34
2018-04-10T08:40:25.110Z,20.57
2018-04-10T08:41:25.013Z,20.01
2018-04-10T08:42:24.875Z,20.05
2018-04-10T08:43:24.933Z,20.04
2018-04-10T08:44:24.724Z,20.19
2018-04-10T08:45:24.781Z,19.72
2018-04-10T08:46:24.572Z,19.12
2018-04-10T08:47:24.540Z,19.07
2018-04-10T08:48:24.420Z,18.84
2018-04-10T08:49:24.470Z,18.94
2018-04-10T08:50:24.279Z,18.99
2018-04-10T08:51:24.236Z,18.97
2018-04-10T08:52:24.120Z,18.86
2018-04-10T08:53:24.171Z,18.79
2018-04-10T08:54:23.969Z,18.53
2018-04-10T08:55:23.978Z,18.62
2018-04-10T08:56:23.844Z,18.72
2018-04-10T08:57:23.786Z,18.79
2018-04-10T08:58:23.676Z,18.97
2018-04-10T08:59:23.699Z,18.89
2018-04-10T09:00:23.553Z,18.83
2018-04-10T09:01:23.483Z,18.83
2018-04-10T09:02:23.364Z,18.91
2018-04-10T09:03:23.423Z,19.10
2018-04-10T09:04:23.220Z,18.87
2018-04-10T09:05:23.145Z,18.76
2018-04-10T09:06:23.083Z,18.91
2018-04-10T09:07:23.039Z,18.96
2018-04-10T09:08:22.914Z,18.99
2018-04-10T09:09:22.958Z,19.10
2018-04-10T09:10:22.866Z,19.17
2018-04-10T09:11:22.720Z,19.09
2018-04-10T09:12:22.632Z,19.12
2018-04-10T09:13:22.584Z,19.17
2018-04-10T09:14:22.460Z,19.10
2018-04-10T09:15:22.389Z,18.89
2018-04-10T09:16:22.323Z,18.74
2018-04-10T09:17:22.259Z,18.86
2018-04-10T09:18:22.176Z,18.89
2018-04-10T09:19:22.108Z,18.84
2018-04-10T09:20:22.066Z,18.75
2018-04-10T09:21:22.009Z,18.87
2018-04-10T09:22:21.866Z,19.01
2018-04-10T09:23:21.821Z,18.96
2018-04-10T09:24:21.692Z,19.10
2018-04-10T09:25:21.738Z,19.06
2018-04-10T09:26:21.545Z,19.09
2018-04-10T09:27:21.560Z,19.07
2018-04-10T09:28:21.401Z,19.12
2018-04-10T09:29:21.432Z,19.09
2018-04-10T09:30:21.246Z,19.17
2018-04-10T09:31:21.200Z,19.24
2018-04-10T09:32:21.101Z,19.32
2018-04-10T09:33:21.050Z,19.49
2018-04-10T09:34:20.940Z,19.52
2018-04-10T09:35:20.970Z,19.50
2018-04-10T09:36:20.781Z,19.53
2018-04-10T09:37:20.735Z,19.64
2018-04-10T09:38:20.643Z,19.58
2018-04-10T09:39:21.009Z,19.61
2018-04-10T09:40:20.494Z,19.65
2018-04-10T09:41:20.413Z,19.58
2018-04-10T09:42:20.371Z,19.58
2018-04-10T09:43:20.333Z,19.62
2018-04-10T09:44:20.200Z,19.60
2018-04-10T09:45:20.204Z,19.67
2018-04-10T09:46:20.018Z,19.61
2018-04-10T09:47:19.967Z,19.64
2018-04-10T09:48:19.891Z,19.71
2018-04-10T09:49:19.827Z,19.72
2018-04-10T09:50:19.743Z,19.65
2018-04-10T09:51:19.657Z,19.45
2018-04-10T09:52:19.565Z,19.49
2018-04-10T09:53:19.597Z,19.43
2018-04-10T09:54:19.413Z,19.43
2018-04-10T09:55:19.489Z,19.31
2018-04-10T09:56:19.267Z,19.31
2018-04-10T09:57:19.274Z,19.42
2018-04-10T09:58:19.115Z,19.32
2018-04-10T09:59:19.117Z,19.49
2018-04-10T10:00:18.972Z,19.35
2018-04-10T10:01:19.122Z,19.43
2018-04-10T10:02:18.806Z,19.50
2018-04-10T10:03:18.835Z,19.53
2018-04-10T10:04:18.711Z,19.47
2018-04-10T10:05:18.732Z,19.46
2018-04-10T10:06:18.503Z,19.49
2018-04-10T10:07:18.457Z,19.43
2018-04-10T10:08:18.393Z,19.58
2018-04-10T10:09:18.387Z,19.50
2018-04-10T10:10:18.231Z,19.45
2018-04-10T10:11:18.236Z,19.32
2018-04-10T10:12:18.047Z,19.43
2018-04-10T10:13:18.049Z,19.55
2018-04-10T10:14:17.925Z,19.62
2018-04-10T10:15:18.272Z,19.60
2018-04-10T10:16:17.753Z,19.72
2018-04-10T10:17:18.421Z,19.34
2018-04-10T10:18:17.604Z,19.46
2018-04-10T10:19:17.633Z,19.43
2018-04-10T10:20:17.445Z,19.61
2018-04-10T10:21:17.429Z,19.23
2018-04-10T10:22:17.352Z,19.27
2018-04-10T10:23:17.307Z,19.39
2018-04-10T10:24:17.160Z,19.31
2018-04-10T10:25:17.212Z,19.31
2018-04-10T10:26:16.996Z,19.24
2018-04-10T10:27:17.012Z,19.32
2018-04-10T10:28:16.843Z,19.55
2018-04-10T10:29:16.825Z,19.61
2018-04-10T10:30:16.695Z,19.65
2018-04-10T10:31:16.743Z,19.47
2018-04-10T10:32:16.547Z,19.43
2018-04-10T10:33:16.547Z,19.42
2018-04-10T10:34:16.384Z,19.49
2018-04-10T10:35:16.401Z,19.57
2018-04-10T10:36:16.282Z,19.70
2018-04-10T10:37:16.269Z,19.75
2018-04-10T10:38:16.086Z,19.72
2018-04-10T10:39:16.064Z,19.70
2018-04-10T10:40:15.948Z,19.90
2018-04-10T10:41:15.975Z,20.16
2018-04-10T10:42:15.788Z,19.95
2018-04-10T10:43:15.791Z,19.92
2018-04-10T10:44:15.644Z,19.95
2018-04-10T10:45:15.634Z,20.08
2018-04-10T10:46:15.475Z,20.17
2018-04-10T10:47:15.441Z,20.33
2018-04-10T10:48:15.332Z,20.44
2018-04-10T10:49:15.308Z,20.37
2018-04-10T10:50:15.204Z,20.26
2018-04-10T10:51:15.164Z,20.27
2018-04-10T10:52:15.089Z,20.56
2018-04-10T10:53:15.055Z,20.66
2018-04-10T10:54:14.887Z,20.71
2018-04-10T10:55:14.839Z,20.73
2018-04-10T10:56:14.749Z,20.71
2018-04-10T10:57:14.677Z,20.90
2018-04-10T10:58:14.588Z,21.08
2018-04-10T10:59:14.523Z,21.15
2018-04-10T11:00:14.432Z,20.97
2018-04-10T11:01:14.380Z,21.06
2018-04-10T11:02:14.281Z,20.97
2018-04-10T11:03:14.287Z,20.68
2018-04-10T11:04:14.126Z,20.56
2018-04-10T11:05:14.078Z,20.82
2018-04-10T11:06:14.111Z,20.60
2018-04-10T11:07:14.038Z,20.54
2018-04-10T11:08:13.830Z,20.71
2018-04-10T11:09:13.809Z,20.53
2018-04-10T11:10:13.675Z,20.60
2018-04-10T11:11:13.716Z,20.81
2018-04-10T11:12:13.547Z,20.97
2018-04-10T11:13:13.502Z,21.27
2018-04-10T11:14:13.399Z,21.55
2018-04-10T11:15:13.505Z,21.56
2018-04-10T11:16:13.234Z,21.64
2018-04-10T11:17:13.213Z,21.53
2018-04-10T11:18:13.087Z,21.71
2018-04-10T11:19:13.033Z,21.70
2018-04-10T11:20:12.945Z,21.77
2018-04-10T11:21:12.968Z,21.71
2018-04-10T11:22:13.556Z,21.90
2018-04-10T11:23:12.776Z,21.90
2018-04-10T11:24:12.645Z,22.04
2018-04-10T11:25:12.696Z,22.04
2018-04-10T11:26:12.504Z,22.23
2018-04-10T11:27:12.498Z,21.66
2018-04-10T11:28:12.387Z,21.51
2018-04-10T11:29:12.300Z,21.77
2018-04-10T11:30:12.215Z,21.86
2018-04-10T11:31:12.263Z,21.66
2018-04-10T11:32:12.062Z,21.58
2018-04-10T11:33:12.077Z,21.40
2018-04-10T11:34:11.915Z,21.36
2018-04-10T11:35:11.932Z,21.27
2018-04-10T11:36:11.855Z,20.97
2018-04-10T11:37:11.748Z,20.76
2018-04-10T11:38:11.645Z,20.85
2018-04-10T11:39:11.670Z,21.05
2018-04-10T11:40:11.504Z,21.03
2018-04-10T11:41:11.459Z,21.24
2018-04-10T11:42:11.382Z,21.51
2018-04-10T11:43:11.410Z,21.73
2018-04-10T11:44:11.177Z,21.74
2018-04-10T11:45:11.223Z,21.93
2018-04-10T11:46:11.027Z,22.23
2018-04-10T11:47:11.000Z,22.31
2018-04-10T11:48:10.897Z,22.74
2018-04-10T11:49:10.895Z,23.09
2018-04-10T11:50:10.729Z,22.31
2018-04-10T11:51:10.709Z,22.35
2018-04-10T11:52:10.612Z,22.09
2018-04-10T11:53:10.658Z,21.77
2018-04-10T11:54:10.459Z,22.02
2018-04-10T11:55:10.425Z,22.02
2018-04-10T11:56:10.309Z,22.31
2018-04-10T11:57:10.336Z,22.05
2018-04-10T11:58:10.233Z,22.31
2018-04-10T11:59:10.175Z,22.20
2018-04-10T12:00:10.015Z,22.31
2018-04-10T12:01:10.163Z,22.54
2018-04-10T12:02:09.854Z,22.60
2018-04-10T12:03:09.871Z,22.75
2018-04-10T12:04:09.751Z,22.49
2018-04-10T12:05:09.684Z,22.45
2018-04-10T12:06:10.567Z,22.61
2018-04-10T12:07:09.600Z,22.33
2018-04-10T12:08:09.435Z,22.36
2018-04-10T12:09:09.434Z,22.11
2018-04-10T12:10:09.284Z,21.99
2018-04-10T12:11:09.230Z,21.85
2018-04-10T12:12:09.134Z,21.70
2018-04-10T12:13:09.110Z,21.63
2018-04-10T12:14:09.024Z,21.58
2018-04-10T12:15:08.938Z,21.64
2018-04-10T12:16:08.872Z,21.58
2018-04-10T12:17:08.836Z,21.49
2018-04-10T12:18:08.695Z,21.59
2018-04-10T12:19:08.770Z,21.51
2018-04-10T12:20:08.548Z,21.43
2018-04-10T12:21:08.550Z,21.22
2018-04-10T12:22:08.428Z,21.24
2018-04-10T12:23:08.467Z,21.28
2018-04-10T12:24:08.315Z,21.45
2018-04-10T12:25:08.201Z,21.49
2018-04-10T12:26:08.112Z,21.55
2018-04-10T12:27:08.076Z,21.52
2018-04-10T12:28:07.968Z,21.64
2018-04-10T12:29:07.917Z,21.81
2018-04-10T12:30:07.831Z,21.67
2018-04-10T12:31:07.755Z,21.66
2018-04-10T12:32:07.673Z,21.63
2018-04-10T12:33:07.610Z,21.70
2018-04-10T12:34:07.525Z,21.63
2018-04-10T12:35:07.542Z,21.74
2018-04-10T12:36:07.413Z,21.73
2018-04-10T12:37:07.310Z,21.75
2018-04-10T12:38:07.251Z,21.77
2018-04-10T12:39:07.195Z,21.73
2018-04-10T12:40:07.108Z,21.66
2018-04-10T12:41:07.043Z,21.64
2018-04-10T12:42:06.951Z,21.58
2018-04-10T12:43:07.007Z,21.61
2018-04-10T12:44:06.840Z,21.79
2018-04-10T12:45:07.583Z,21.83
2018-04-10T12:46:06.653Z,22.04
2018-04-10T12:47:06.604Z,22.19
2018-04-10T12:48:06.483Z,22.35
2018-04-10T12:49:06.431Z,22.44
2018-04-10T12:50:06.363Z,22.41
2018-04-10T12:51:06.401Z,22.33
2018-04-10T12:52:06.279Z,22.27
2018-04-10T12:53:06.230Z,22.54
2018-04-10T12:54:06.048Z,22.52
2018-04-10T12:55:06.139Z,22.45
2018-04-10T12:56:05.908Z,22.44
2018-04-10T12:57:05.887Z,22.31
2018-04-10T12:58:05.761Z,22.39
2018-04-10T12:59:05.728Z,22.67
2018-04-10T13:00:05.605Z,22.78
2018-04-10T13:01:05.785Z,22.66
2018-04-10T13:02:05.465Z,22.36
2018-04-10T13:03:05.447Z,22.12
2018-04-10T13:04:05.338Z,22.39
2018-04-10T13:05:05.367Z,22.42
2018-04-10T13:06:05.272Z,22.69
2018-04-10T13:07:05.172Z,22.45
2018-04-10T13:08:05.022Z,21.93
2018-04-10T13:09:04.973Z,21.96
2018-04-10T13:10:04.869Z,21.89
2018-04-10T13:11:04.913Z,21.82
2018-04-10T13:12:04.776Z,21.93
2018-04-10T13:13:04.697Z,22.04
2018-04-10T13:14:04.591Z,22.05
2018-04-10T13:15:04.616Z,22.05
2018-04-10T13:16:04.455Z,22.06
2018-04-10T13:17:04.451Z,22.05
2018-04-10T13:18:04.287Z,22.06
2018-04-10T13:19:04.234Z,21.86
2018-04-10T13:20:04.159Z,21.59
2018-04-10T13:21:04.141Z,21.64
2018-04-10T13:22:04.082Z,21.81
2018-04-10T13:23:03.969Z,21.71
2018-04-10T13:24:03.849Z,21.77
2018-04-10T13:25:03.857Z,21.66
2018-04-10T13:26:03.746Z,21.71
2018-04-10T13:27:03.671Z,21.86
2018-04-10T13:28:03.567Z,21.91
2018-04-10T13:29:03.588Z,21.93
2018-04-10T13:30:03.402Z,21.91
2018-04-10T13:31:04.128Z,21.90
2018-04-10T13:32:03.292Z,22.04
2018-04-10T13:33:03.312Z,22.17
2018-04-10T13:34:03.118Z,22.35
2018-04-10T13:35:03.110Z,22.44
2018-04-10T13:36:02.975Z,22.56
2018-04-10T13:37:03.015Z,22.42
2018-04-10T13:38:03.582Z,22.31
2018-04-10T13:39:02.807Z,22.05
2018-04-10T13:40:02.671Z,21.85
2018-04-10T13:41:02.622Z,21.66
2018-04-10T13:42:02.513Z,21.49
2018-04-10T13:43:02.565Z,21.55
2018-04-10T13:44:02.390Z,21.56
2018-04-10T13:46:44.545Z,21.66
2018-04-10T13:47:44.530Z,21.71
2018-04-10T13:48:44.743Z,21.81
2018-04-10T13:49:44.364Z,21.85
2018-04-10T13:50:44.233Z,21.86
2018-04-10T13:51:44.408Z,21.96
2018-04-10T13:52:44.109Z,22.06
2018-04-10T13:53:44.113Z,22.06
2018-04-10T13:54:43.937Z,22.01
2018-04-10T13:55:43.984Z,21.93
2018-04-10T13:56:43.814Z,21.86
2018-04-10T13:57:43.802Z,22.04
2018-04-10T13:58:43.674Z,22.23
2018-04-10T13:59:43.711Z,22.15
2018-04-10T14:00:43.521Z,22.12
2018-04-10T14:01:43.451Z,22.04
2018-04-10T14:02:43.342Z,21.98
2018-04-10T14:03:43.324Z,21.89
2018-04-10T14:04:43.220Z,21.91
2018-04-10T14:05:43.227Z,21.93
2018-04-10T14:06:43.047Z,21.89
2018-04-10T14:07:43.443Z,21.86
2018-04-10T14:08:42.916Z,22.06
2018-04-10T14:09:42.858Z,22.20
2018-04-10T14:10:42.752Z,22.19
2018-04-10T14:11:42.755Z,22.31
2018-04-10T14:12:42.606Z,22.33